Aviation Digital Data Service (ADDS)

Output produced by METARs form (1143 UTC 16 October 2018)
found at http://www.aviationweather.gov/metar/data/
 
LECO 161130Z 03003KT 320V080 9999 FEW030 18/11 Q1018 NOSIG
TAF LECO 160800Z 1609/1709 VRB05KT CAVOK TX19/1614Z TN09/1705Z 
     PROB30 
     TEMPO 1613/1617 35010KT 
     BECMG 1620/1623 3000 BR 
     PROB40 
     TEMPO 1703/1708 1400 BCFG 
     PROB30 
     TEMPO 1705/1707 0800 BCFG BKN002
       
LEAB 161100Z 06006KT 010V100 9999 FEW045 16/10 Q1016 NOSIG
TAF LEAB 161100Z 1612/1621 08005KT 9999 FEW045 
     PROB30 
     TEMPO 1612/1618 FEW045TCU
       
LERI 161100Z VRB02KT 9999 BKN060 19/12 Q1014 NOSIG
TAF COR LERI 161130Z 1612/1621 VRB03KT 9999 FEW020 SCT030 
     TEMPO 1614/1618 07010KT 
     PROB30 
     TEMPO 1614/1618 4000 SHRA SCT030TCU
       
LEAL 161130Z 11004KT 030V190 9999 FEW020TCU SCT038 BKN051 22/14 Q1013 TEMPO 4000 SHRA
TAF LEAL 161100Z 1612/1712 07014KT 9999 SCT015 BKN045 TX20/1612Z TN14/1706Z 
     PROB40 
     TEMPO 1612/1624 4000 SHRA SCT025TCU BKN030 
     PROB30 
     TEMPO 1612/1618 4000 TSRA FEW025CB BKN030 
     BECMG 1618/1620 02009KT
       
LEAM 161130Z 07016KT 9999 FEW020 SCT040 23/11 Q1012
TAF LEAM 160800Z 1609/1709 04010KT 9999 FEW030 TX23/1614Z TN16/1706Z 
     PROB30 
     TEMPO 1609/1612 4000 SHRA SCT040TCU 
     BECMG 1617/1619 34010KT
       
LEGA 161100Z VRB03KT 9999 FEW014 BKN029 BKN035 16/12 Q1015
TAF LEGA 161100Z 1612/1621 VRB03KT 9999 FEW015 BKN030 
     TEMPO 1616/1619 18010KT
       
LEAS 161130Z 02004KT 330V080 9999 FEW035 17/13 Q1018 NOSIG
TAF AMD LEAS 160839Z 1609/1709 VRB05KT 9999 SCT030 TX19/1614Z TN10/1706Z 
     PROB30 
     TEMPO 1612/1617 06010KT 
     PROB40 
     TEMPO 1619/1707 4000 BR 
     PROB30 
     TEMPO 1700/1706 BKN010
       
LEMD 161130Z 02003KT CAVOK 18/10 Q1016 NOSIG
TAF LEMD 161100Z 1612/1718 VRB05KT CAVOK TX22/1615Z TN09/1706Z
       
LEBL 161130Z 07010KT 040V100 9999 FEW025 21/15 Q1015 NOSIG
TAF LEBL 161100Z 1612/1712 08010KT 9999 FEW025 TX21/1612Z TN17/1706Z 
     TEMPO 1612/1712 FEW025TCU 
     PROB30 
     TEMPO 1612/1617 4000 SHRA SCT025TCU BKN030 
     BECMG 1618/1620 34007KT 
     BECMG 1708/1710 04012KT
       
LEBB 161130Z VRB03KT 9999 FEW027 SCT036 20/13 Q1018 NOSIG
TAF LEBB 161100Z 1612/1712 VRB04KT 9999 SCT020 SCT035 TX22/1712Z TN10/1706Z 
     PROB30 
     TEMPO 1613/1615 02010KT 
     TEMPO 1620/1707 3000 BR BKN010 
     TEMPO 1702/1707 1400 BCFG BKN003 
     PROB40 
     TEMPO 1702/1707 0500 FG BKN001
       
LEBG 161130Z 04003KT 9999 FEW035 17/10 Q1018
TAF LEBG 161100Z 1612/1621 VRB04KT CAVOK 
     PROB30 
     TEMPO 1619/1621 1500 BR BKN008
       
LEBA 161130Z 08008KT 050V110 9999 FEW030 19/13 Q1014
TAF LEBA 161100Z 1612/1621 08005KT 9999 FEW030
       
LEVS 161130Z VRB03KT CAVOK 19/09 Q1016
TAF LEVS 161100Z 1612/1621 VRB04KT CAVOK
       
GCFV 161130Z 05011KT 9999 SCT036 25/18 Q1019
TAF GCFV 160800Z 1609/1709 04015KT 9999 SCT030 TX26/1614Z TN22/1705Z 
     BECMG 1617/1620 34011KT
       
LEGT 161100Z VRB04KT CAVOK 17/09 Q1016
TAF LEGT 161100Z 1612/1621 VRB04KT CAVOK
       
LEGE 161130Z 04007KT 010V080 9999 SCT027 21/15 Q1016
TAF LEGE 161100Z 1612/1712 02008KT 9999 SCT025 TX21/1613Z TN15/1706Z 
     TEMPO 1612/1712 FEW030TCU 
     PROB40 
     TEMPO 1612/1704 4000 SHRA SCT025TCU BKN030 
     PROB30 
     TEMPO 1618/1624 4000 TSRA SCT020CB BKN030
       
GCLP 161130Z 03017KT 9999 BKN035 25/17 Q1020 NOSIG
TAF GCLP 160800Z 1609/1709 01018KT 9999 SCT030 TX25/1615Z TN21/1705Z
       
LEGR 161130Z VRB04KT 9999 BKN025 19/13 Q1014
TAF LEGR 160800Z 1609/1709 VRB03KT 9999 SCT012 BKN020 TX23/1615Z TN08/1706Z 
     PROB40 
     TEMPO 1704/1708 0500 FG
       
GCHI 161130Z 02012KT 340V060 9999 SCT040 25/17 Q1021
TAF GCHI 160800Z 1609/1709 02013KT 9999 SCT030 TX26/1615Z TN21/1705Z
       
LEIB 161130Z 08007KT 040V110 9999 FEW025TCU FEW027 SCT035 23/14 Q1013 NOSIG
TAF LEIB 160800Z 1609/1709 09010KT 9999 FEW020 SCT030 TX24/1612Z TN15/1706Z 
     TEMPO 1609/1709 FEW025TCU 
     PROB40 
     TEMPO 1609/1709 4000 SHRA SCT025TCU BKN030 
     PROB30 
     TEMPO 1609/1706 4000 TSRA SCT025CB BKN030 
     BECMG 1618/1620 36007KT
       
LEJR 161130Z 02005KT 320V070 9999 FEW014 SCT018 BKN030 21/16 Q1014
TAF LEJR 161100Z 1612/1712 04005KT 9999 SCT015 SCT030 TX23/1614Z TN12/1706Z 
     PROB40 
     TEMPO 1705/1709 4000 BR BKN005 
     PROB30 
     TEMPO 1706/1708 0500 FG VV001
       
GCGM 161130Z 20005KT 150V230 9999 BKN033 24/16 Q1021 RMK R09/18004KT 110V230 ARP/21005KT 160V240
TAF GCGM 160800Z 1609/1709 23007KT 9999 SCT030 TX26/1615Z TN21/1705Z
       
GCLA 161130Z 04008KT 010V070 9999 FEW035 25/16 Q1021
TAF GCLA 160800Z 1609/1709 03009KT 9999 SCT030 TX26/1615Z TN21/1705Z
       
GCRR 161130Z 36014KT 330V030 9999 FEW035 27/15 Q1019
TAF GCRR 160800Z 1609/1709 04012KT 9999 SCT030 TX28/1614Z TN22/1705Z 
     BECMG 1613/1616 34009KT
       
LELN 161130Z 20002KT 9999 SCT017 12/07 Q1019
TAF LELN 161100Z 1612/1621 VRB04KT 9999 BKN015 
     BECMG 1612/1614 SCT020
       
LEMG 161130Z 29008KT 250V320 9999 FEW020 SCT070 23/15 Q1013 NOSIG
TAF LEMG 161100Z 1612/1712 29010KT 9999 FEW020 TX24/1614Z TN15/1706Z 
     BECMG 1614/1616 09006KT 
     BECMG 1620/1622 27007KT
       
GEML 161130Z 26009KT 220V310 9000 4000SW -RA SCT009 SCT017 19/17 Q1013
TAF AMD GEML 161029Z 1610/1709 27010KT 9999 SCT010 SCT020 TX23/1614Z TN17/1705Z 
     TEMPO 1610/1615 2000 RA BKN010 
     PROB30 
     TEMPO 1612/1615 28015G25KT
       
LEMH 161130Z VRB01KT 9999 FEW020 22/13 Q1015
TAF LEMH 160800Z 1609/1709 VRB03KT 9999 SCT025 TX24/1612Z TN16/1706Z 
     TEMPO 1609/1709 FEW025TCU BKN030 
     BECMG 1700/1702 01007KT
       
LEMO 161100Z 01006KT 330V070 9999 FEW015 SCT020 19/15 Q1014 NOSIG
TAF LEMO 161100Z 1612/1621 02005KT 9999 SCT020
       
LEPP 161130Z 29002KT 9999 FEW040 18/11 Q1017
TAF LEPP 160800Z 1609/1709 VRB06KT CAVOK TX22/1613Z TN08/1706Z 
     TEMPO 1612/1618 34010KT 
     PROB30 
     TEMPO 1621/1624 3000 BR BCFG 
     BECMG 1700/1702 1500 BCFG BKN005 
     TEMPO 1702/1709 0600 BCFG BKN001 
     PROB40 
     TEMPO 1702/1708 0150 FG VV001
       
LERS 161130Z 15002KT 9999 FEW025TCU SCT040 23/05 Q1015
TAF LERS 160800Z 1609/1709 VRB04KT 9999 FEW030 TX24/1612Z TN14/1706Z 
     TEMPO 1609/1709 FEW025TCU 
     PROB40 
     TEMPO 1610/1618 4000 SHRA SCT025TCU BKN030 
     BECMG 1618/1620 02008KT
       
LERT 161100Z 03006KT 360V060 9999 FEW008 19/16 Q1014 NOSIG
TAF LERT 161100Z 1612/1621 03005KT 9999 SCT015
       
LESA 161130Z VRB02KT 9999 FEW010 OVC015 13/09 Q1018
TAF LESA 161100Z 1612/1712 06007KT 9999 FEW030 TX21/1615Z TN09/1706Z 
     BECMG 1622/1624 1500 BR BKN008 
     PROB40 
     TEMPO 1705/1709 0300 FG BKN003
       
LESO 161130Z 29006KT 240V030 9999 SCT022 19/15 Q1017
TAF LESO 161100Z 1612/1712 01007KT 9999 SCT012 BKN020 TX20/1613Z TN13/1706Z 
     TEMPO 1612/1709 BKN010 
     PROB40 
     TEMPO 1619/1707 3000 BR BKN008
       
LEXJ 161130Z 02003KT 350V100 9999 FEW036 19/13 Q1018
TAF LEXJ 160800Z 1609/1709 VRB04KT 9999 FEW030 TX20/1615Z TN11/1705Z 
     PROB30 
     TEMPO 1612/1617 04010KT 
     PROB40 
     TEMPO 1619/1707 4500 BR 
     PROB30 
     TEMPO 1700/1705 2500 BR BKN010
       
LEST 161130Z 32003KT 270V020 9999 FEW018 19/13 Q1018 NOSIG
TAF LEST 161100Z 1612/1712 02007KT CAVOK TX20/1615Z TN07/1706Z 
     PROB30 
     TEMPO 1620/1624 3000 BR 
     TEMPO 1700/1708 3000 BR 
     TEMPO 1700/1708 1400 BCFG 
     TEMPO 1702/1708 0800 BCFG BKN002 
     PROB30 
     TEMPO 1703/1708 0350 FG VV001
       
LESU 161030Z 14004KT 100V180 9999 SCT030 15/08 Q1017
LEZL 161130Z 03003KT 330V070 9999 SCT015 SCT040 21/14 Q1014 NOSIG
TAF COR LEZL 160800Z 1609/1709 04005KT 9999 SCT025 SCT040 TX24/1614Z TN12/1706Z
       
LEBZ 161100Z 03004KT 350V110 9999 SCT023 19/13 Q1016
TAF LEBZ 161100Z 1612/1712 04005KT 9999 SCT015 TX23/1615Z TN14/1706Z 
     PROB40 
     TEMPO 1704/1709 3000 BR BKN008 
     PROB30 
     TEMPO 1705/1708 0500 FG VV002
       
GCXO 161130Z 31011KT 280V340 9999 BKN020 20/14 Q1023 NOSIG
TAF GCXO 160800Z 1609/1709 32009KT 9999 BKN015 TX22/1615Z TN17/1705Z 
     PROB30 
     TEMPO 1619/1709 3000 BCFG BKN005
       
GCTS 161130Z 10017KT 070V130 9999 SCT035 26/16 Q1020 NOSIG
TAF GCTS 160800Z 1609/1709 10018KT 9999 FEW030 TX27/1615Z TN19/1705Z 
     TEMPO 1609/1709 04009KT
       
LETO 161100Z 07004KT 350V120 CAVOK 18/11 Q1016 NOSIG
TAF LETO 161100Z 1612/1712 VRB05KT CAVOK TX22/1615Z TN09/1706Z
       
LEVC 161130Z 07009KT 340V120 9999 FEW025CB 24/12 Q1014 TEMPO 4000 SHRA
TAF LEVC 161100Z 1612/1712 07010KT 9999 FEW025 TX23/1612Z TN13/1706Z 
     PROB40 
     TEMPO 1612/1702 4000 SHRA SCT025TCU BKN030 
     PROB30 
     TEMPO 1612/1620 4000 TSRA SCT025CB BKN030 
     BECMG 1618/1620 31006KT
       
LEVD 161130Z 35004KT 290V030 9999 BKN021 14/09 Q1018
TAF LEVD 161100Z 1612/1712 VRB04KT 9999 BKN020 TX18/1615Z TN04/1706Z 
     BECMG 1624/1702 1500 BR BKN008 
     PROB40 
     TEMPO 1703/1710 0300 FG BKN003
       
LEVX 161130Z 21003KT 160V250 9999 FEW008 17/14 Q1018 NOSIG
TAF LEVX 161100Z 1612/1712 VRB04KT 9999 SCT010 TX20/1613Z TN10/1706Z 
     PROB30 
     TEMPO 1613/1618 29010KT 
     PROB40 
     TEMPO 1702/1708 3000 BR 
     PROB30 
     TEMPO 1704/1707 1500 BCFG
       
LEVT 161130Z 10002KT 9999 SCT015 15/11 Q1018
TAF LEVT 161100Z 1612/1712 VRB04KT 9999 SCT020 TX20/1614Z TN08/1704Z 
     BECMG 1612/1614 03010KT 
     BECMG 1619/1622 VRB04KT 3000 BR BKN008 
     TEMPO 1621/1709 1400 BCFG BKN003 
     TEMPO 1622/1708 0800 BCFG BKN002 
     PROB40 
     TEMPO 1700/1707 0350 FG VV001 
     BECMG 1709/1711 CAVOK
       
LEZG 161130Z 32002KT 9999 FEW040 19/11 Q1017
TAF LEZG 161100Z 1612/1712 29005KT 9999 FEW040 TX22/1614Z TN12/1706Z 
     BECMG 1622/1624 28007KT